sensor_id;sensor_type;location;lat;lon;timestamp;P1;durP1;ratioP1;P2;durP2;ratioP2
27728;SDS011;15126;42.186;24.340;2023-03-03T00:00:41;69.90;;;50.00;;
27728;SDS011;15126;42.186;24.340;2023-03-03T00:03:08;71.70;;;51.50;;
27728;SDS011;15126;42.186;24.340;2023-03-03T00:05:37;81.20;;;51.03;;
27728;SDS011;15126;42.186;24.340;2023-03-03T00:08:04;76.47;;;47.73;;
27728;SDS011;15126;42.186;24.340;2023-03-03T00:10:33;72.47;;;50.43;;
27728;SDS011;15126;42.186;24.340;2023-03-03T00:13:00;77.60;;;50.80;;
27728;SDS011;15126;42.186;24.340;2023-03-03T00:15:27;77.87;;;50.10;;
27728;SDS011;15126;42.186;24.340;2023-03-03T00:17:55;76.47;;;50.07;;
27728;SDS011;15126;42.186;24.340;2023-03-03T00:20:26;73.20;;;52.47;;
27728;SDS011;15126;42.186;24.340;2023-03-03T00:22:57;72.87;;;52.03;;
27728;SDS011;15126;42.186;24.340;2023-03-03T00:25:32;77.60;;;47.77;;
27728;SDS011;15126;42.186;24.340;2023-03-03T00:28:00;76.17;;;48.50;;
27728;SDS011;15126;42.186;24.340;2023-03-03T00:30:33;84.47;;;48.73;;
27728;SDS011;15126;42.186;24.340;2023-03-03T00:32:59;74.97;;;52.07;;
27728;SDS011;15126;42.186;24.340;2023-03-03T00:35:27;81.13;;;50.47;;
27728;SDS011;15126;42.186;24.340;2023-03-03T00:38:00;77.73;;;49.97;;
27728;SDS011;15126;42.186;24.340;2023-03-03T00:40:37;70.07;;;47.57;;
27728;SDS011;15126;42.186;24.340;2023-03-03T00:43:11;80.60;;;47.53;;
27728;SDS011;15126;42.186;24.340;2023-03-03T00:45:44;72.97;;;46.23;;
27728;SDS011;15126;42.186;24.340;2023-03-03T00:48:20;75.53;;;48.93;;
27728;SDS011;15126;42.186;24.340;2023-03-03T00:50:49;78.40;;;49.63;;
27728;SDS011;15126;42.186;24.340;2023-03-03T00:53:17;72.93;;;45.73;;
27728;SDS011;15126;42.186;24.340;2023-03-03T00:55:47;69.13;;;47.47;;
27728;SDS011;15126;42.186;24.340;2023-03-03T00:58:15;79.97;;;52.10;;
27728;SDS011;15126;42.186;24.340;2023-03-03T01:00:43;90.20;;;60.07;;
27728;SDS011;15126;42.186;24.340;2023-03-03T01:03:11;82.70;;;54.47;;
27728;SDS011;15126;42.186;24.340;2023-03-03T01:05:40;74.03;;;50.50;;
27728;SDS011;15126;42.186;24.340;2023-03-03T01:08:07;88.77;;;61.90;;
27728;SDS011;15126;42.186;24.340;2023-03-03T01:10:35;77.43;;;52.43;;
27728;SDS011;15126;42.186;24.340;2023-03-03T01:13:05;85.53;;;51.07;;
27728;SDS011;15126;42.186;24.340;2023-03-03T01:15:33;77.37;;;51.57;;
27728;SDS011;15126;42.186;24.340;2023-03-03T01:18:01;75.67;;;50.10;;
27728;SDS011;15126;42.186;24.340;2023-03-03T01:20:27;75.83;;;48.83;;
27728;SDS011;15126;42.186;24.340;2023-03-03T01:22:54;71.33;;;49.47;;
27728;SDS011;15126;42.186;24.340;2023-03-03T01:25:21;69.77;;;48.27;;
27728;SDS011;15126;42.186;24.340;2023-03-03T01:27:48;78.40;;;48.30;;
27728;SDS011;15126;42.186;24.340;2023-03-03T01:30:16;73.00;;;49.13;;
27728;SDS011;15126;42.186;24.340;2023-03-03T01:32:43;75.50;;;46.30;;
27728;SDS011;15126;42.186;24.340;2023-03-03T01:35:10;69.67;;;45.93;;
27728;SDS011;15126;42.186;24.340;2023-03-03T01:37:37;69.87;;;48.00;;
27728;SDS011;15126;42.186;24.340;2023-03-03T01:40:05;77.00;;;47.87;;
27728;SDS011;15126;42.186;24.340;2023-03-03T01:42:33;66.60;;;45.43;;
27728;SDS011;15126;42.186;24.340;2023-03-03T01:45:14;72.03;;;48.23;;
27728;SDS011;15126;42.186;24.340;2023-03-03T01:47:48;74.13;;;47.97;;
27728;SDS011;15126;42.186;24.340;2023-03-03T01:50:22;70.33;;;46.73;;
27728;SDS011;15126;42.186;24.340;2023-03-03T01:52:54;71.43;;;46.37;;
27728;SDS011;15126;42.186;24.340;2023-03-03T01:55:23;73.73;;;48.37;;
27728;SDS011;15126;42.186;24.340;2023-03-03T01:57:55;71.43;;;49.93;;
27728;SDS011;15126;42.186;24.340;2023-03-03T02:00:26;80.37;;;49.33;;
27728;SDS011;15126;42.186;24.340;2023-03-03T02:02:54;77.77;;;49.07;;
27728;SDS011;15126;42.186;24.340;2023-03-03T02:05:21;72.43;;;48.87;;
27728;SDS011;15126;42.186;24.340;2023-03-03T02:07:48;78.50;;;49.33;;
27728;SDS011;15126;42.186;24.340;2023-03-03T02:10:17;72.17;;;49.27;;
27728;SDS011;15126;42.186;24.340;2023-03-03T02:12:48;75.43;;;47.83;;
27728;SDS011;15126;42.186;24.340;2023-03-03T02:15:17;76.67;;;47.63;;
27728;SDS011;15126;42.186;24.340;2023-03-03T02:17:47;75.93;;;50.10;;
27728;SDS011;15126;42.186;24.340;2023-03-03T02:20:17;62.93;;;46.43;;
27728;SDS011;15126;42.186;24.340;2023-03-03T02:22:59;57.67;;;43.57;;
27728;SDS011;15126;42.186;24.340;2023-03-03T02:25:33;63.90;;;46.07;;
27728;SDS011;15126;42.186;24.340;2023-03-03T02:28:07;63.47;;;44.00;;
27728;SDS011;15126;42.186;24.340;2023-03-03T02:30:35;64.30;;;46.30;;
27728;SDS011;15126;42.186;24.340;2023-03-03T02:33:04;61.37;;;46.23;;
27728;SDS011;15126;42.186;24.340;2023-03-03T02:35:32;68.50;;;47.70;;
27728;SDS011;15126;42.186;24.340;2023-03-03T02:38:13;73.57;;;46.77;;
27728;SDS011;15126;42.186;24.340;2023-03-03T02:40:46;66.07;;;46.83;;
27728;SDS011;15126;42.186;24.340;2023-03-03T02:43:24;76.80;;;48.93;;
27728;SDS011;15126;42.186;24.340;2023-03-03T02:45:54;64.27;;;44.40;;
27728;SDS011;15126;42.186;24.340;2023-03-03T02:48:21;67.13;;;45.27;;
27728;SDS011;15126;42.186;24.340;2023-03-03T02:50:48;61.20;;;41.60;;
27728;SDS011;15126;42.186;24.340;2023-03-03T02:53:15;66.63;;;45.90;;
27728;SDS011;15126;42.186;24.340;2023-03-03T02:55:42;71.33;;;48.83;;
27728;SDS011;15126;42.186;24.340;2023-03-03T02:58:09;71.13;;;47.80;;
27728;SDS011;15126;42.186;24.340;2023-03-03T03:00:37;62.33;;;46.53;;
27728;SDS011;15126;42.186;24.340;2023-03-03T03:03:04;65.90;;;44.33;;
27728;SDS011;15126;42.186;24.340;2023-03-03T03:05:30;67.10;;;47.27;;
27728;SDS011;15126;42.186;24.340;2023-03-03T03:07:57;68.93;;;44.73;;
27728;SDS011;15126;42.186;24.340;2023-03-03T03:10:24;66.33;;;48.43;;
27728;SDS011;15126;42.186;24.340;2023-03-03T03:12:51;79.17;;;48.27;;
27728;SDS011;15126;42.186;24.340;2023-03-03T03:15:18;75.37;;;48.03;;
27728;SDS011;15126;42.186;24.340;2023-03-03T03:17:46;60.33;;;43.43;;
27728;SDS011;15126;42.186;24.340;2023-03-03T03:22:43;65.47;;;44.50;;
27728;SDS011;15126;42.186;24.340;2023-03-03T03:25:10;74.67;;;45.63;;
27728;SDS011;15126;42.186;24.340;2023-03-03T03:27:36;83.23;;;51.87;;
27728;SDS011;15126;42.186;24.340;2023-03-03T03:30:04;72.37;;;42.87;;
27728;SDS011;15126;42.186;24.340;2023-03-03T03:32:31;67.97;;;42.00;;
27728;SDS011;15126;42.186;24.340;2023-03-03T03:34:59;70.93;;;42.00;;
27728;SDS011;15126;42.186;24.340;2023-03-03T03:37:26;70.43;;;45.10;;
27728;SDS011;15126;42.186;24.340;2023-03-03T03:39:53;69.23;;;44.80;;
27728;SDS011;15126;42.186;24.340;2023-03-03T03:42:20;69.43;;;47.80;;
27728;SDS011;15126;42.186;24.340;2023-03-03T03:44:47;68.97;;;48.60;;
27728;SDS011;15126;42.186;24.340;2023-03-03T03:47:15;66.63;;;46.83;;
27728;SDS011;15126;42.186;24.340;2023-03-03T03:49:41;66.40;;;46.60;;
27728;SDS011;15126;42.186;24.340;2023-03-03T03:52:10;79.90;;;48.40;;
27728;SDS011;15126;42.186;24.340;2023-03-03T03:54:36;76.70;;;56.00;;
27728;SDS011;15126;42.186;24.340;2023-03-03T03:57:03;80.83;;;53.10;;
27728;SDS011;15126;42.186;24.340;2023-03-03T03:59:30;65.87;;;47.93;;
27728;SDS011;15126;42.186;24.340;2023-03-03T04:01:57;64.00;;;46.33;;
27728;SDS011;15126;42.186;24.340;2023-03-03T04:04:24;69.30;;;49.13;;
27728;SDS011;15126;42.186;24.340;2023-03-03T04:06:51;63.03;;;44.80;;
27728;SDS011;15126;42.186;24.340;2023-03-03T04:09:19;61.97;;;45.80;;
27728;SDS011;15126;42.186;24.340;2023-03-03T04:11:46;68.93;;;49.17;;
27728;SDS011;15126;42.186;24.340;2023-03-03T04:14:13;66.37;;;44.63;;
27728;SDS011;15126;42.186;24.340;2023-03-03T04:16:40;63.00;;;44.13;;
27728;SDS011;15126;42.186;24.340;2023-03-03T04:19:07;60.73;;;44.17;;
27728;SDS011;15126;42.186;24.340;2023-03-03T04:21:33;64.27;;;43.90;;
27728;SDS011;15126;42.186;24.340;2023-03-03T04:24:00;58.90;;;42.13;;
27728;SDS011;15126;42.186;24.340;2023-03-03T04:26:28;55.17;;;42.60;;
27728;SDS011;15126;42.186;24.340;2023-03-03T04:28:56;57.97;;;43.93;;
27728;SDS011;15126;42.186;24.340;2023-03-03T04:31:23;54.70;;;41.23;;
27728;SDS011;15126;42.186;24.340;2023-03-03T04:33:51;63.90;;;43.57;;
27728;SDS011;15126;42.186;24.340;2023-03-03T04:36:18;63.23;;;43.47;;
27728;SDS011;15126;42.186;24.340;2023-03-03T04:38:45;67.30;;;44.60;;
27728;SDS011;15126;42.186;24.340;2023-03-03T04:41:13;62.20;;;44.87;;
27728;SDS011;15126;42.186;24.340;2023-03-03T04:43:41;68.43;;;44.27;;
27728;SDS011;15126;42.186;24.340;2023-03-03T04:46:08;58.83;;;43.23;;
27728;SDS011;15126;42.186;24.340;2023-03-03T04:48:35;63.97;;;42.90;;
27728;SDS011;15126;42.186;24.340;2023-03-03T04:51:02;62.33;;;46.70;;
27728;SDS011;15126;42.186;24.340;2023-03-03T04:53:30;63.00;;;41.17;;
27728;SDS011;15126;42.186;24.340;2023-03-03T04:55:57;57.23;;;44.07;;
27728;SDS011;15126;42.186;24.340;2023-03-03T04:58:23;68.73;;;44.73;;
27728;SDS011;15126;42.186;24.340;2023-03-03T05:00:53;55.47;;;42.80;;
27728;SDS011;15126;42.186;24.340;2023-03-03T05:03:22;61.03;;;44.23;;
27728;SDS011;15126;42.186;24.340;2023-03-03T05:05:51;71.87;;;46.90;;
27728;SDS011;15126;42.186;24.340;2023-03-03T05:08:17;63.60;;;44.17;;
27728;SDS011;15126;42.186;24.340;2023-03-03T05:10:44;59.83;;;43.43;;
27728;SDS011;15126;42.186;24.340;2023-03-03T05:13:11;60.60;;;45.13;;
27728;SDS011;15126;42.186;24.340;2023-03-03T05:15:39;68.43;;;45.57;;
27728;SDS011;15126;42.186;24.340;2023-03-03T05:18:08;61.27;;;42.57;;
27728;SDS011;15126;42.186;24.340;2023-03-03T05:20:35;68.63;;;45.73;;
27728;SDS011;15126;42.186;24.340;2023-03-03T05:23:02;67.43;;;48.37;;
27728;SDS011;15126;42.186;24.340;2023-03-03T05:25:29;68.20;;;44.37;;
27728;SDS011;15126;42.186;24.340;2023-03-03T05:27:56;71.33;;;44.33;;
27728;SDS011;15126;42.186;24.340;2023-03-03T05:30:23;61.23;;;42.10;;
27728;SDS011;15126;42.186;24.340;2023-03-03T05:32:50;58.13;;;41.30;;
27728;SDS011;15126;42.186;24.340;2023-03-03T05:35:18;62.07;;;41.87;;
27728;SDS011;15126;42.186;24.340;2023-03-03T05:37:45;64.80;;;43.00;;
27728;SDS011;15126;42.186;24.340;2023-03-03T05:40:13;62.03;;;46.77;;
27728;SDS011;15126;42.186;24.340;2023-03-03T05:42:40;56.10;;;47.80;;
27728;SDS011;15126;42.186;24.340;2023-03-03T05:45:07;65.03;;;46.70;;
27728;SDS011;15126;42.186;24.340;2023-03-03T05:47:35;69.27;;;48.47;;
27728;SDS011;15126;42.186;24.340;2023-03-03T05:50:02;64.83;;;45.23;;
27728;SDS011;15126;42.186;24.340;2023-03-03T05:52:31;66.67;;;44.43;;
27728;SDS011;15126;42.186;24.340;2023-03-03T05:54:59;59.90;;;48.17;;
27728;SDS011;15126;42.186;24.340;2023-03-03T05:57:26;72.10;;;50.50;;
27728;SDS011;15126;42.186;24.340;2023-03-03T05:59:53;67.90;;;47.87;;
27728;SDS011;15126;42.186;24.340;2023-03-03T06:02:19;61.97;;;46.13;;
27728;SDS011;15126;42.186;24.340;2023-03-03T06:04:46;65.87;;;50.07;;
27728;SDS011;15126;42.186;24.340;2023-03-03T06:07:13;77.10;;;57.60;;
27728;SDS011;15126;42.186;24.340;2023-03-03T06:09:41;68.87;;;50.97;;
27728;SDS011;15126;42.186;24.340;2023-03-03T06:12:08;69.07;;;50.53;;
27728;SDS011;15126;42.186;24.340;2023-03-03T06:14:35;71.83;;;50.03;;
27728;SDS011;15126;42.186;24.340;2023-03-03T06:17:02;62.10;;;49.87;;
27728;SDS011;15126;42.186;24.340;2023-03-03T06:19:30;71.67;;;52.57;;
27728;SDS011;15126;42.186;24.340;2023-03-03T06:21:57;62.57;;;48.87;;
27728;SDS011;15126;42.186;24.340;2023-03-03T06:24:24;69.57;;;44.67;;
27728;SDS011;15126;42.186;24.340;2023-03-03T06:26:56;63.60;;;47.87;;
27728;SDS011;15126;42.186;24.340;2023-03-03T06:29:23;70.83;;;46.37;;
27728;SDS011;15126;42.186;24.340;2023-03-03T06:31:50;68.70;;;46.97;;
27728;SDS011;15126;42.186;24.340;2023-03-03T06:34:17;58.87;;;43.73;;
27728;SDS011;15126;42.186;24.340;2023-03-03T06:36:44;60.73;;;42.90;;
27728;SDS011;15126;42.186;24.340;2023-03-03T06:39:11;54.70;;;41.03;;
27728;SDS011;15126;42.186;24.340;2023-03-03T06:41:37;51.63;;;39.63;;
27728;SDS011;15126;42.186;24.340;2023-03-03T06:44:06;53.70;;;37.97;;
27728;SDS011;15126;42.186;24.340;2023-03-03T06:46:32;51.20;;;39.67;;
27728;SDS011;15126;42.186;24.340;2023-03-03T06:48:59;51.17;;;39.70;;
27728;SDS011;15126;42.186;24.340;2023-03-03T06:51:29;51.23;;;37.63;;
27728;SDS011;15126;42.186;24.340;2023-03-03T06:54:00;50.97;;;38.00;;
27728;SDS011;15126;42.186;24.340;2023-03-03T06:56:32;55.73;;;39.30;;
27728;SDS011;15126;42.186;24.340;2023-03-03T06:59:01;51.03;;;40.53;;
27728;SDS011;15126;42.186;24.340;2023-03-03T07:01:36;52.53;;;38.93;;
27728;SDS011;15126;42.186;24.340;2023-03-03T07:04:06;56.53;;;40.90;;
27728;SDS011;15126;42.186;24.340;2023-03-03T07:06:39;51.93;;;40.03;;
27728;SDS011;15126;42.186;24.340;2023-03-03T07:09:19;50.27;;;39.27;;
27728;SDS011;15126;42.186;24.340;2023-03-03T07:11:49;58.03;;;39.03;;
27728;SDS011;15126;42.186;24.340;2023-03-03T07:14:18;50.77;;;37.20;;
27728;SDS011;15126;42.186;24.340;2023-03-03T07:16:46;44.83;;;35.47;;
27728;SDS011;15126;42.186;24.340;2023-03-03T07:19:20;44.20;;;34.73;;
27728;SDS011;15126;42.186;24.340;2023-03-03T07:21:53;37.23;;;31.60;;
27728;SDS011;15126;42.186;24.340;2023-03-03T07:24:24;40.57;;;30.53;;
27728;SDS011;15126;42.186;24.340;2023-03-03T07:26:54;36.73;;;27.30;;
27728;SDS011;15126;42.186;24.340;2023-03-03T07:29:27;38.00;;;26.87;;
27728;SDS011;15126;42.186;24.340;2023-03-03T07:31:55;34.93;;;27.80;;
27728;SDS011;15126;42.186;24.340;2023-03-03T07:34:24;36.97;;;28.17;;
27728;SDS011;15126;42.186;24.340;2023-03-03T07:36:56;34.37;;;27.53;;
27728;SDS011;15126;42.186;24.340;2023-03-03T07:39:29;34.73;;;26.17;;
27728;SDS011;15126;42.186;24.340;2023-03-03T07:42:13;35.27;;;25.73;;
27728;SDS011;15126;42.186;24.340;2023-03-03T07:44:47;39.27;;;28.27;;
27728;SDS011;15126;42.186;24.340;2023-03-03T07:47:20;33.57;;;28.13;;
27728;SDS011;15126;42.186;24.340;2023-03-03T07:49:49;35.90;;;27.73;;
27728;SDS011;15126;42.186;24.340;2023-03-03T07:52:27;30.50;;;26.40;;
27728;SDS011;15126;42.186;24.340;2023-03-03T07:54:57;38.73;;;26.83;;
27728;SDS011;15126;42.186;24.340;2023-03-03T07:57:26;34.77;;;27.63;;
27728;SDS011;15126;42.186;24.340;2023-03-03T07:59:59;37.63;;;28.27;;
27728;SDS011;15126;42.186;24.340;2023-03-03T08:02:33;38.20;;;29.17;;
27728;SDS011;15126;42.186;24.340;2023-03-03T08:07:59;41.80;;;28.50;;
27728;SDS011;15126;42.186;24.340;2023-03-03T08:10:38;36.87;;;28.53;;
27728;SDS011;15126;42.186;24.340;2023-03-03T08:13:12;38.23;;;29.40;;
27728;SDS011;15126;42.186;24.340;2023-03-03T08:15:45;36.67;;;27.30;;
27728;SDS011;15126;42.186;24.340;2023-03-03T08:18:15;31.80;;;23.80;;
27728;SDS011;15126;42.186;24.340;2023-03-03T08:20:48;29.70;;;24.40;;
27728;SDS011;15126;42.186;24.340;2023-03-03T08:23:16;33.87;;;27.77;;
27728;SDS011;15126;42.186;24.340;2023-03-03T08:25:46;31.60;;;26.40;;
27728;SDS011;15126;42.186;24.340;2023-03-03T08:28:13;34.47;;;24.43;;
27728;SDS011;15126;42.186;24.340;2023-03-03T08:30:41;32.77;;;25.20;;
27728;SDS011;15126;42.186;24.340;2023-03-03T08:33:10;29.53;;;25.40;;
27728;SDS011;15126;42.186;24.340;2023-03-03T08:35:38;31.10;;;25.80;;
27728;SDS011;15126;42.186;24.340;2023-03-03T08:38:05;30.77;;;25.87;;
27728;SDS011;15126;42.186;24.340;2023-03-03T08:40:33;43.20;;;32.50;;
27728;SDS011;15126;42.186;24.340;2023-03-03T08:43:00;33.97;;;27.60;;
27728;SDS011;15126;42.186;24.340;2023-03-03T08:45:28;35.80;;;27.23;;
27728;SDS011;15126;42.186;24.340;2023-03-03T08:47:55;47.50;;;33.73;;
27728;SDS011;15126;42.186;24.340;2023-03-03T08:50:25;46.50;;;31.07;;
27728;SDS011;15126;42.186;24.340;2023-03-03T08:52:53;42.47;;;26.23;;
27728;SDS011;15126;42.186;24.340;2023-03-03T08:55:20;34.47;;;25.27;;
27728;SDS011;15126;42.186;24.340;2023-03-03T08:57:47;35.30;;;26.27;;
27728;SDS011;15126;42.186;24.340;2023-03-03T09:00:15;34.17;;;23.70;;
27728;SDS011;15126;42.186;24.340;2023-03-03T09:02:43;31.80;;;22.13;;
27728;SDS011;15126;42.186;24.340;2023-03-03T09:05:09;33.80;;;25.23;;
27728;SDS011;15126;42.186;24.340;2023-03-03T09:07:39;28.57;;;22.53;;
27728;SDS011;15126;42.186;24.340;2023-03-03T09:10:06;32.73;;;22.67;;
27728;SDS011;15126;42.186;24.340;2023-03-03T09:12:35;26.73;;;22.83;;
27728;SDS011;15126;42.186;24.340;2023-03-03T09:15:12;25.27;;;19.47;;
27728;SDS011;15126;42.186;24.340;2023-03-03T09:17:43;29.57;;;22.30;;
27728;SDS011;15126;42.186;24.340;2023-03-03T09:20:23;24.10;;;17.23;;
27728;SDS011;15126;42.186;24.340;2023-03-03T09:22:57;19.60;;;16.03;;
27728;SDS011;15126;42.186;24.340;2023-03-03T09:25:26;30.80;;;22.40;;
27728;SDS011;15126;42.186;24.340;2023-03-03T09:27:57;25.87;;;22.07;;
27728;SDS011;15126;42.186;24.340;2023-03-03T09:30:35;46.40;;;28.47;;
27728;SDS011;15126;42.186;24.340;2023-03-03T09:36:11;26.77;;;18.83;;
27728;SDS011;15126;42.186;24.340;2023-03-03T09:38:48;38.97;;;22.30;;
27728;SDS011;15126;42.186;24.340;2023-03-03T09:44:32;61.97;;;35.10;;
27728;SDS011;15126;42.186;24.340;2023-03-03T09:47:22;24.00;;;19.13;;
27728;SDS011;15126;42.186;24.340;2023-03-03T09:50:02;20.23;;;15.30;;
27728;SDS011;15126;42.186;24.340;2023-03-03T09:52:39;28.83;;;18.73;;
27728;SDS011;15126;42.186;24.340;2023-03-03T09:55:16;22.30;;;17.20;;
27728;SDS011;15126;42.186;24.340;2023-03-03T09:57:59;95.53;;;43.70;;
27728;SDS011;15126;42.186;24.340;2023-03-03T10:00:41;30.50;;;19.50;;
27728;SDS011;15126;42.186;24.340;2023-03-03T10:06:26;19.43;;;17.33;;
27728;SDS011;15126;42.186;24.340;2023-03-03T10:09:01;33.77;;;20.47;;
27728;SDS011;15126;42.186;24.340;2023-03-03T10:11:39;21.97;;;16.90;;
27728;SDS011;15126;42.186;24.340;2023-03-03T10:14:22;41.93;;;27.83;;
27728;SDS011;15126;42.186;24.340;2023-03-03T10:17:08;26.23;;;21.67;;
27728;SDS011;15126;42.186;24.340;2023-03-03T10:19:48;25.07;;;21.03;;
27728;SDS011;15126;42.186;24.340;2023-03-03T10:22:31;20.17;;;17.60;;
27728;SDS011;15126;42.186;24.340;2023-03-03T10:25:08;22.27;;;19.07;;
27728;SDS011;15126;42.186;24.340;2023-03-03T10:27:49;20.63;;;18.47;;
27728;SDS011;15126;42.186;24.340;2023-03-03T10:30:27;24.70;;;22.10;;
27728;SDS011;15126;42.186;24.340;2023-03-03T10:33:08;32.50;;;29.03;;
27728;SDS011;15126;42.186;24.340;2023-03-03T10:35:58;25.60;;;22.97;;
27728;SDS011;15126;42.186;24.340;2023-03-03T10:38:54;25.97;;;21.07;;
27728;SDS011;15126;42.186;24.340;2023-03-03T10:41:35;26.03;;;23.33;;
27728;SDS011;15126;42.186;24.340;2023-03-03T10:44:20;22.50;;;20.10;;
27728;SDS011;15126;42.186;24.340;2023-03-03T10:46:57;20.87;;;18.63;;
27728;SDS011;15126;42.186;24.340;2023-03-03T10:49:35;20.97;;;18.73;;
27728;SDS011;15126;42.186;24.340;2023-03-03T10:52:18;21.37;;;18.30;;
27728;SDS011;15126;42.186;24.340;2023-03-03T10:55:12;22.27;;;20.00;;
27728;SDS011;15126;42.186;24.340;2023-03-03T10:57:53;23.83;;;20.03;;
27728;SDS011;15126;42.186;24.340;2023-03-03T11:00:32;28.63;;;22.00;;
27728;SDS011;15126;42.186;24.340;2023-03-03T11:05:57;20.97;;;18.77;;
27728;SDS011;15126;42.186;24.340;2023-03-03T11:08:27;21.63;;;19.17;;
27728;SDS011;15126;42.186;24.340;2023-03-03T11:11:04;30.77;;;25.07;;
27728;SDS011;15126;42.186;24.340;2023-03-03T11:13:37;29.87;;;26.67;;
27728;SDS011;15126;42.186;24.340;2023-03-03T11:19:20;23.67;;;20.90;;
27728;SDS011;15126;42.186;24.340;2023-03-03T11:21:59;33.90;;;27.03;;
27728;SDS011;15126;42.186;24.340;2023-03-03T11:24:43;32.00;;;26.70;;
27728;SDS011;15126;42.186;24.340;2023-03-03T11:27:21;24.50;;;21.97;;
27728;SDS011;15126;42.186;24.340;2023-03-03T11:30:04;29.87;;;26.73;;
27728;SDS011;15126;42.186;24.340;2023-03-03T11:32:53;24.10;;;21.60;;
27728;SDS011;15126;42.186;24.340;2023-03-03T11:35:32;29.37;;;25.70;;
27728;SDS011;15126;42.186;24.340;2023-03-03T11:38:06;25.20;;;22.53;;
27728;SDS011;15126;42.186;24.340;2023-03-03T11:40:46;22.03;;;19.80;;
27728;SDS011;15126;42.186;24.340;2023-03-03T11:43:16;25.00;;;22.33;;
27728;SDS011;15126;42.186;24.340;2023-03-03T11:45:47;26.70;;;24.00;;
27728;SDS011;15126;42.186;24.340;2023-03-03T11:48:21;31.57;;;26.60;;
27728;SDS011;15126;42.186;24.340;2023-03-03T11:50:57;89.23;;;50.37;;
27728;SDS011;15126;42.186;24.340;2023-03-03T11:53:35;108.07;;;59.63;;
27728;SDS011;15126;42.186;24.340;2023-03-03T11:56:13;108.10;;;63.17;;
27728;SDS011;15126;42.186;24.340;2023-03-03T11:58:49;31.13;;;27.67;;
27728;SDS011;15126;42.186;24.340;2023-03-03T12:01:30;126.27;;;63.77;;
27728;SDS011;15126;42.186;24.340;2023-03-03T12:04:03;71.67;;;48.50;;
27728;SDS011;15126;42.186;24.340;2023-03-03T12:06:38;29.63;;;26.53;;
27728;SDS011;15126;42.186;24.340;2023-03-03T12:09:26;27.43;;;24.37;;
27728;SDS011;15126;42.186;24.340;2023-03-03T12:12:04;33.80;;;30.27;;
27728;SDS011;15126;42.186;24.340;2023-03-03T12:14:39;31.30;;;27.87;;
27728;SDS011;15126;42.186;24.340;2023-03-03T12:17:22;22.87;;;20.67;;
27728;SDS011;15126;42.186;24.340;2023-03-03T12:20:12;32.47;;;27.33;;
27728;SDS011;15126;42.186;24.340;2023-03-03T12:22:46;26.33;;;23.67;;
27728;SDS011;15126;42.186;24.340;2023-03-03T12:25:22;25.80;;;23.10;;
27728;SDS011;15126;42.186;24.340;2023-03-03T12:27:59;24.67;;;22.27;;
27728;SDS011;15126;42.186;24.340;2023-03-03T12:30:40;26.03;;;23.53;;
27728;SDS011;15126;42.186;24.340;2023-03-03T12:33:26;25.53;;;23.03;;
27728;SDS011;15126;42.186;24.340;2023-03-03T12:36:06;22.77;;;20.13;;
27728;SDS011;15126;42.186;24.340;2023-03-03T12:38:44;23.50;;;21.23;;
27728;SDS011;15126;42.186;24.340;2023-03-03T12:41:20;23.07;;;20.67;;
27728;SDS011;15126;42.186;24.340;2023-03-03T12:43:54;26.63;;;23.40;;
27728;SDS011;15126;42.186;24.340;2023-03-03T12:46:33;26.67;;;24.07;;
27728;SDS011;15126;42.186;24.340;2023-03-03T12:49:06;29.33;;;23.17;;
27728;SDS011;15126;42.186;24.340;2023-03-03T12:51:38;23.93;;;21.13;;
27728;SDS011;15126;42.186;24.340;2023-03-03T12:54:30;25.17;;;21.77;;
27728;SDS011;15126;42.186;24.340;2023-03-03T12:57:12;26.60;;;23.90;;
27728;SDS011;15126;42.186;24.340;2023-03-03T12:59:50;21.37;;;19.50;;
27728;SDS011;15126;42.186;24.340;2023-03-03T13:02:38;26.03;;;23.57;;
27728;SDS011;15126;42.186;24.340;2023-03-03T13:05:18;24.87;;;22.27;;
27728;SDS011;15126;42.186;24.340;2023-03-03T13:07:53;24.80;;;22.40;;
27728;SDS011;15126;42.186;24.340;2023-03-03T13:10:33;22.67;;;20.47;;
27728;SDS011;15126;42.186;24.340;2023-03-03T13:13:06;19.87;;;17.97;;
27728;SDS011;15126;42.186;24.340;2023-03-03T13:15:41;22.53;;;20.27;;
27728;SDS011;15126;42.186;24.340;2023-03-03T13:21:00;28.13;;;25.33;;
27728;SDS011;15126;42.186;24.340;2023-03-03T13:23:36;23.43;;;21.20;;
27728;SDS011;15126;42.186;24.340;2023-03-03T13:26:09;22.03;;;19.73;;
27728;SDS011;15126;42.186;24.340;2023-03-03T13:28:46;21.90;;;19.60;;
27728;SDS011;15126;42.186;24.340;2023-03-03T13:31:23;26.90;;;24.30;;
27728;SDS011;15126;42.186;24.340;2023-03-03T13:33:57;25.47;;;23.07;;
27728;SDS011;15126;42.186;24.340;2023-03-03T13:36:27;25.90;;;23.43;;
27728;SDS011;15126;42.186;24.340;2023-03-03T13:39:02;24.77;;;22.27;;
27728;SDS011;15126;42.186;24.340;2023-03-03T13:41:41;27.57;;;24.27;;
27728;SDS011;15126;42.186;24.340;2023-03-03T13:44:14;19.67;;;17.87;;
27728;SDS011;15126;42.186;24.340;2023-03-03T13:46:47;19.30;;;17.50;;
27728;SDS011;15126;42.186;24.340;2023-03-03T13:49:27;17.83;;;16.07;;
27728;SDS011;15126;42.186;24.340;2023-03-03T13:52:06;22.40;;;20.23;;
27728;SDS011;15126;42.186;24.340;2023-03-03T13:57:44;22.77;;;20.40;;
27728;SDS011;15126;42.186;24.340;2023-03-03T14:00:23;22.87;;;20.60;;
27728;SDS011;15126;42.186;24.340;2023-03-03T14:05:55;19.03;;;17.23;;
27728;SDS011;15126;42.186;24.340;2023-03-03T14:08:33;21.27;;;19.37;;
27728;SDS011;15126;42.186;24.340;2023-03-03T14:11:13;20.00;;;18.20;;
27728;SDS011;15126;42.186;24.340;2023-03-03T14:13:48;25.63;;;23.23;;
27728;SDS011;15126;42.186;24.340;2023-03-03T14:16:28;21.87;;;19.87;;
27728;SDS011;15126;42.186;24.340;2023-03-03T14:19:09;20.07;;;18.27;;
27728;SDS011;15126;42.186;24.340;2023-03-03T14:21:42;22.57;;;20.33;;
27728;SDS011;15126;42.186;24.340;2023-03-03T14:24:15;20.67;;;18.33;;
27728;SDS011;15126;42.186;24.340;2023-03-03T14:26:46;21.93;;;19.83;;
27728;SDS011;15126;42.186;24.340;2023-03-03T14:29:18;23.93;;;20.67;;
27728;SDS011;15126;42.186;24.340;2023-03-03T14:31:47;22.03;;;19.87;;
27728;SDS011;15126;42.186;24.340;2023-03-03T14:34:24;26.03;;;19.37;;
27728;SDS011;15126;42.186;24.340;2023-03-03T14:40:00;19.70;;;17.70;;
27728;SDS011;15126;42.186;24.340;2023-03-03T14:42:46;19.70;;;17.77;;
27728;SDS011;15126;42.186;24.340;2023-03-03T14:45:20;33.30;;;29.73;;
27728;SDS011;15126;42.186;24.340;2023-03-03T14:47:55;28.50;;;25.50;;
27728;SDS011;15126;42.186;24.340;2023-03-03T14:50:33;21.27;;;19.10;;
27728;SDS011;15126;42.186;24.340;2023-03-03T14:53:13;22.27;;;19.97;;
27728;SDS011;15126;42.186;24.340;2023-03-03T14:55:45;21.60;;;19.50;;
27728;SDS011;15126;42.186;24.340;2023-03-03T14:58:26;23.93;;;21.67;;
27728;SDS011;15126;42.186;24.340;2023-03-03T15:01:05;22.40;;;20.40;;
27728;SDS011;15126;42.186;24.340;2023-03-03T15:03:34;22.80;;;20.33;;
27728;SDS011;15126;42.186;24.340;2023-03-03T15:06:07;26.20;;;23.83;;
27728;SDS011;15126;42.186;24.340;2023-03-03T15:08:38;31.67;;;28.50;;